Time;durP1;ratioP1;P1;durP2;ratioP2;P2;SDS_P1;SDS_P2;PMS_P1;PMS_P2;Temp;Humidity;BMP_temperature;BMP_pressure;BME280_temperature;BME280_humidity;BME280_pressure;Samples;Min_cycle;Max_cycle;Signal;HPM_P1;HPM_P2
2023/08/11 00:00:42;;;;;;;13.88;11.07;;;15.90;99.90;;;;;;4593119;19;20038;-61
2023/08/11 00:02:33;;;;;;;12.95;10.10;;;15.90;99.90;;;;;;4591850;19;20473;-61
2023/08/11 00:04:06;;;;;;;14.18;10.27;;;15.80;99.90;;;;;;4593714;19;20062;-61
2023/08/11 00:05:38;;;;;;;12.95;9.73;;;15.80;99.90;;;;;;4593508;19;20002;-61
2023/08/11 00:07:10;;;;;;;14.25;10.50;;;15.80;99.90;;;;;;4593370;19;20014;-62
2023/08/11 00:08:42;;;;;;;;;;;15.90;99.90;;;;;;4593029;19;20074;-62
2023/08/11 00:10:13;;;;;;;15.23;10.55;;;15.90;99.90;;;;;;4592891;19;19958;-62
2023/08/11 00:11:45;;;;;;;13.85;9.82;;;15.90;99.90;;;;;;4592263;19;20392;-62
2023/08/11 00:13:16;;;;;;;15.80;10.95;;;15.90;99.90;;;;;;4593515;19;20444;-62
2023/08/11 00:14:48;;;;;;;12.77;9.82;;;15.90;99.90;;;;;;4593161;19;20062;-62
2023/08/11 00:16:19;;;;;;;;;;;15.80;99.90;;;;;;4593967;19;20446;-62
2023/08/11 00:18:00;;;;;;;8.73;7.47;;;15.90;99.90;;;;;;4593135;19;19922;-62
2023/08/11 00:19:31;;;;;;;10.82;8.10;;;15.80;99.90;;;;;;4592094;19;20057;-62
2023/08/11 00:21:03;;;;;;;;;;;15.80;99.90;;;;;;4593404;19;20014;-62
2023/08/11 00:22:35;;;;;;;10.98;8.20;;;15.80;99.90;;;;;;4593474;19;19934;-62
2023/08/11 00:24:06;;;;;;;11.85;9.02;;;15.80;99.90;;;;;;4591597;19;20006;-62
2023/08/11 00:25:38;;;;;;;11.30;9.05;;;15.90;99.90;;;;;;4592413;19;20082;-62
2023/08/11 00:27:10;;;;;;;11.80;8.90;;;15.90;99.90;;;;;;4591448;19;20473;-61
2023/08/11 00:28:43;;;;;;;10.45;8.55;;;15.90;99.90;;;;;;4592288;19;20011;-61
2023/08/11 00:30:15;;;;;;;11.63;8.57;;;15.90;99.90;;;;;;4592658;19;20043;-62
2023/08/11 00:31:46;;;;;;;9.98;8.68;;;15.90;99.90;;;;;;4592103;19;20019;-62
2023/08/11 00:33:18;;;;;;;15.57;10.80;;;15.90;99.90;;;;;;4593144;19;20009;-62
2023/08/11 00:34:51;;;;;;;12.73;8.98;;;15.90;99.90;;;;;;4592563;19;20002;-62
2023/08/11 00:36:24;;;;;;;10.68;8.02;;;15.90;99.90;;;;;;4592550;19;20014;-62
2023/08/11 00:37:55;;;;;;;10.55;8.85;;;15.90;99.90;;;;;;4592594;19;20010;-62
2023/08/11 00:39:27;;;;;;;9.00;8.10;;;15.90;99.90;;;;;;4592349;19;20084;-62
2023/08/11 00:40:58;;;;;;;;;;;15.90;99.90;;;;;;4593205;19;20014;-61
2023/08/11 00:42:30;;;;;;;10.75;8.65;;;15.90;99.90;;;;;;4592403;19;19914;-62
2023/08/11 00:44:02;;;;;;;8.52;7.60;;;15.90;99.90;;;;;;4592519;19;20003;-61
2023/08/11 00:45:33;;;;;;;10.45;8.20;;;16.00;99.90;;;;;;4592428;19;20481;-62
2023/08/11 00:47:05;;;;;;;9.52;8.52;;;15.90;99.90;;;;;;4592341;19;20011;-62
2023/08/11 00:48:50;;;;;;;8.13;7.28;;;15.90;99.90;;;;;;4592377;19;20007;-62
2023/08/11 00:50:22;;;;;;;8.50;7.20;;;15.90;99.90;;;;;;4591390;19;20005;-61
2023/08/11 00:51:53;;;;;;;7.90;7.10;;;15.90;99.90;;;;;;4591329;19;20474;-62
2023/08/11 00:53:26;;;;;;;;;;;15.90;99.90;;;;;;4591918;19;20458;-62
2023/08/11 00:54:58;;;;;;;8.85;6.95;;;15.90;99.90;;;;;;4591898;19;19938;-62
2023/08/11 00:56:30;;;;;;;8.63;7.10;;;15.90;99.90;;;;;;4592478;19;20094;-62
2023/08/11 00:58:02;;;;;;;8.48;7.57;;;15.90;99.90;;;;;;4591317;19;20006;-62
2023/08/11 00:59:33;;;;;;;7.90;7.10;;;15.90;99.90;;;;;;4591838;19;20074;-62
2023/08/11 01:01:05;;;;;;;7.80;6.55;;;16.00;99.90;;;;;;4592513;19;20010;-61
2023/08/11 01:02:38;;;;;;;7.60;6.80;;;15.90;99.90;;;;;;4591006;19;20011;-61
2023/08/11 01:04:12;;;;;;;8.75;7.32;;;15.90;99.90;;;;;;4592409;19;20422;-61
2023/08/11 01:06:09;;;;;;;10.80;9.80;;;16.00;99.90;;;;;;4592317;19;19998;-62
2023/08/11 01:08:04;;;;;;;8.45;7.65;;;16.00;99.90;;;;;;4590845;19;20071;-62
2023/08/11 01:09:42;;;;;;;9.60;8.60;;;15.90;99.90;;;;;;4591023;19;20002;-61
2023/08/11 01:11:25;;;;;;;14.13;10.70;;;15.90;99.90;;;;;;4591288;19;20014;-62
2023/08/11 01:13:03;;;;;;;12.20;9.57;;;15.90;99.90;;;;;;4590891;19;20030;-62
2023/08/11 01:14:56;;;;;;;10.93;8.30;;;15.90;99.90;;;;;;4591670;19;20011;-62
2023/08/11 01:16:28;;;;;;;12.50;8.52;;;16.20;99.90;;;;;;4589514;19;20010;-62
2023/08/11 01:17:59;;;;;;;;;;;16.50;99.90;;;;;;4592625;19;20033;-62
2023/08/11 01:19:35;;;;;;;10.20;6.33;;;16.70;99.90;;;;;;4590846;19;19915;-62
2023/08/11 01:21:10;;;;;;;7.65;5.68;;;16.90;99.90;;;;;;4591655;19;20448;-62
2023/08/11 01:22:46;;;;;;;7.35;5.78;;;17.10;99.90;;;;;;4591280;19;20014;-62
2023/08/11 01:24:18;;;;;;;7.45;5.90;;;17.20;99.90;;;;;;4590846;19;20012;-62
2023/08/11 01:25:51;;;;;;;8.85;6.05;;;17.40;99.90;;;;;;4590657;19;20450;-62
2023/08/11 01:27:23;;;;;;;6.90;5.43;;;17.50;99.90;;;;;;4590740;19;20003;-62
2023/08/11 01:28:54;;;;;;;8.05;5.38;;;17.60;99.90;;;;;;4591643;19;20006;-62
2023/08/11 01:30:27;;;;;;;8.13;5.32;;;17.70;99.90;;;;;;4591912;19;20325;-62
2023/08/11 01:32:00;;;;;;;6.18;4.50;;;17.80;99.90;;;;;;4590926;19;20015;-62
2023/08/11 01:33:31;;;;;;;6.60;5.90;;;17.80;99.90;;;;;;4591735;19;20011;-62
2023/08/11 01:35:05;;;;;;;7.00;6.30;;;17.60;99.90;;;;;;4592003;19;20097;-62
2023/08/11 01:36:40;;;;;;;7.07;6.18;;;16.80;99.90;;;;;;4590387;19;20031;-62
2023/08/11 01:38:12;;;;;;;7.32;6.63;;;16.40;99.90;;;;;;4591407;19;19995;-62
2023/08/11 01:39:44;;;;;;;7.05;6.35;;;16.20;99.90;;;;;;4591696;19;20007;-62
2023/08/11 01:41:16;;;;;;;6.45;5.85;;;16.00;99.90;;;;;;4590789;19;20007;-61
2023/08/11 01:42:47;;;;;;;8.38;7.07;;;16.00;99.90;;;;;;4591647;19;19998;-62
2023/08/11 01:44:18;;;;;;;8.77;7.18;;;16.00;99.90;;;;;;4589407;19;20021;-61
2023/08/11 01:45:50;;;;;;;7.85;6.80;;;15.90;99.90;;;;;;4589712;19;20011;-62
2023/08/11 01:47:21;;;;;;;7.97;7.18;;;15.90;99.90;;;;;;4590718;19;20009;-62
2023/08/11 01:48:55;;;;;;;9.65;7.53;;;15.90;99.90;;;;;;4590220;19;20002;-62
2023/08/11 01:50:27;;;;;;;9.27;7.55;;;15.90;99.90;;;;;;4589907;19;20122;-62
2023/08/11 01:51:59;;;;;;;8.60;7.70;;;15.90;99.90;;;;;;4589779;19;20032;-62
2023/08/11 01:53:30;;;;;;;8.40;7.40;;;15.90;99.90;;;;;;4590235;19;20060;-61
2023/08/11 01:55:02;;;;;;;9.25;8.02;;;15.80;99.90;;;;;;4591139;19;20002;-61
2023/08/11 01:56:34;;;;;;;;;;;15.80;99.90;;;;;;4592076;19;20039;-62
2023/08/11 01:58:06;;;;;;;8.55;7.65;;;15.80;99.90;;;;;;4591100;19;20299;-61
2023/08/11 01:59:38;;;;;;;7.25;6.53;;;15.80;99.90;;;;;;4591393;19;20018;-61
2023/08/11 02:01:09;;;;;;;7.80;6.88;;;15.80;99.90;;;;;;4589455;19;20135;-62
2023/08/11 02:02:42;;;;;;;7.60;6.78;;;15.80;99.90;;;;;;4589256;19;20010;-61
2023/08/11 02:04:14;;;;;;;8.50;7.65;;;15.80;99.90;;;;;;4590980;19;20033;-61
2023/08/11 02:05:46;;;;;;;8.18;7.38;;;15.80;99.90;;;;;;4591042;19;20007;-62
2023/08/11 02:07:17;;;;;;;9.93;7.70;;;15.80;99.90;;;;;;4591063;19;20034;-62
2023/08/11 02:08:50;;;;;;;;;;;15.80;99.90;;;;;;4591959;19;20345;-62
2023/08/11 02:10:21;;;;;;;9.55;8.35;;;15.70;99.90;;;;;;4591003;19;19970;-62
2023/08/11 02:11:53;;;;;;;9.25;7.82;;;15.70;99.90;;;;;;4589962;19;20280;-61
2023/08/11 02:13:26;;;;;;;;;;;15.70;99.90;;;;;;4591799;19;20462;-61
2023/08/11 02:14:58;;;;;;;14.02;9.73;;;15.60;99.90;;;;;;4591008;19;19911;-62
2023/08/11 02:16:30;;;;;;;12.48;10.57;;;15.60;99.90;;;;;;4590829;19;20023;-62
2023/08/11 02:18:02;;;;;;;11.43;9.10;;;15.60;99.90;;;;;;4590779;19;20018;-62
2023/08/11 02:19:34;;;;;;;9.88;8.85;;;15.60;99.90;;;;;;4591098;19;20011;-62
2023/08/11 02:21:07;;;;;;;9.48;8.48;;;15.60;99.90;;;;;;4590484;19;20030;-62
2023/08/11 02:22:39;;;;;;;12.85;9.95;;;15.60;99.90;;;;;;4589355;19;20029;-62
2023/08/11 02:24:11;;;;;;;13.32;11.15;;;15.60;99.90;;;;;;4590824;19;20029;-61
2023/08/11 02:25:42;;;;;;;11.60;9.90;;;15.50;99.90;;;;;;4590632;19;20014;-62
2023/08/11 02:27:14;;;;;;;10.60;9.52;;;15.50;99.90;;;;;;4590914;19;20307;-61
2023/08/11 02:28:46;;;;;;;11.73;9.50;;;15.50;99.90;;;;;;4592451;19;20008;-62
2023/08/11 02:30:18;;;;;;;12.07;9.75;;;15.50;99.90;;;;;;4595613;19;20002;-61
2023/08/11 02:31:50;;;;;;;11.88;10.65;;;15.40;99.90;;;;;;4594044;19;20025;-61
2023/08/11 02:33:22;;;;;;;9.65;8.40;;;15.40;99.90;;;;;;4593815;19;20110;-62
2023/08/11 02:34:55;;;;;;;12.93;9.20;;;15.60;99.90;;;;;;4594799;19;20019;-62
2023/08/11 02:36:26;;;;;;;15.63;10.07;;;16.00;99.90;;;;;;4593727;19;20393;-62
2023/08/11 02:37:58;;;;;;;10.07;7.68;;;16.30;99.90;;;;;;4594644;19;20011;-62
2023/08/11 02:39:29;;;;;;;;;;;16.60;99.90;;;;;;4595859;19;20006;-62
2023/08/11 02:41:01;;;;;;;13.23;9.45;;;16.80;99.90;;;;;;4594795;19;20004;-62
2023/08/11 02:42:32;;;;;;;17.45;9.13;;;17.00;99.90;;;;;;4595244;19;19999;-61
2023/08/11 02:44:04;;;;;;;9.93;7.30;;;17.20;99.90;;;;;;4595283;19;20002;-62
2023/08/11 02:45:36;;;;;;;11.88;7.80;;;17.30;99.90;;;;;;4594877;19;20043;-61
2023/08/11 02:47:09;;;;;;;11.10;7.88;;;17.50;99.90;;;;;;4595128;19;20002;-61
2023/08/11 02:48:40;;;;;;;11.65;7.82;;;17.60;99.90;;;;;;4594777;19;20010;-62
2023/08/11 02:50:13;;;;;;;11.13;8.07;;;17.60;99.90;;;;;;4594735;19;20015;-61
2023/08/11 02:51:45;;;;;;;10.93;7.75;;;17.80;99.90;;;;;;4593751;19;20007;-61
2023/08/11 02:53:16;;;;;;;8.73;6.70;;;17.80;99.90;;;;;;4594687;19;20017;-61
2023/08/11 02:54:48;;;;;;;7.50;6.13;;;17.90;99.90;;;;;;4594610;19;20339;-62
2023/08/11 02:56:21;;;;;;;11.45;6.72;;;18.00;99.90;;;;;;4594628;19;20014;-62
2023/08/11 02:57:52;;;;;;;8.07;6.07;;;18.00;99.90;;;;;;4594696;19;20027;-61
2023/08/11 02:59:24;;;;;;;8.30;6.03;;;18.10;99.90;;;;;;4594562;19;20034;-61
2023/08/11 03:00:56;;;;;;;8.68;7.18;;;18.10;99.90;;;;;;4594571;19;20421;-62
2023/08/11 03:02:27;;;;;;;8.20;5.82;;;18.20;99.90;;;;;;4592806;19;20094;-61
2023/08/11 03:03:59;;;;;;;7.85;5.88;;;18.20;99.90;;;;;;4594442;19;20312;-61
2023/08/11 03:05:31;;;;;;;;;;;18.20;99.90;;;;;;4595070;19;20010;-61
2023/08/11 03:07:05;;;;;;;9.55;6.28;;;18.30;99.90;;;;;;4592214;19;19919;-61
2023/08/11 03:08:38;;;;;;;12.30;7.38;;;18.30;99.90;;;;;;4593964;19;20030;-62
2023/08/11 03:10:09;;;;;;;9.35;6.90;;;18.40;99.90;;;;;;4594375;19;20010;-62
2023/08/11 03:11:40;;;;;;;10.43;7.78;;;18.50;99.90;;;;;;4593634;19;20033;-62
2023/08/11 03:13:12;;;;;;;11.30;8.20;;;18.50;99.90;;;;;;4591475;19;20007;-62
2023/08/11 03:14:44;;;;;;;14.10;9.73;;;18.50;99.90;;;;;;4593873;19;20018;-62
2023/08/11 03:16:15;;;;;;;14.80;9.55;;;18.60;99.90;;;;;;4594186;19;20011;-62
2023/08/11 03:17:47;;;;;;;18.05;12.00;;;18.60;99.90;;;;;;4592842;19;20014;-61
2023/08/11 03:19:19;;;;;;;19.02;11.90;;;18.60;99.90;;;;;;4594086;19;20433;-62
2023/08/11 03:20:52;;;;;;;13.85;9.13;;;18.70;99.90;;;;;;4594169;19;20319;-61
2023/08/11 03:22:24;;;;;;;12.32;8.23;;;18.70;99.90;;;;;;4591139;19;20029;-61
2023/08/11 03:23:55;;;;;;;9.00;6.60;;;18.70;99.90;;;;;;4594068;19;20015;-62
2023/08/11 03:25:27;;;;;;;8.52;5.85;;;18.70;99.90;;;;;;4592533;19;20018;-62
2023/08/11 03:26:59;;;;;;;9.20;5.75;;;18.80;99.90;;;;;;4593500;19;20014;-62
2023/08/11 03:28:31;;;;;;;7.90;5.75;;;18.70;99.90;;;;;;4594320;19;20413;-62
2023/08/11 03:30:03;;;;;;;7.85;5.60;;;18.70;99.90;;;;;;4594539;19;19999;-61
2023/08/11 03:31:35;;;;;;;6.00;5.40;;;18.70;99.90;;;;;;4593411;19;20019;-61
2023/08/11 03:33:06;;;;;;;5.97;5.07;;;18.20;99.90;;;;;;4592352;19;20097;-61
2023/08/11 03:34:38;;;;;;;5.20;4.70;;;16.70;99.90;;;;;;4591367;19;20003;-63
2023/08/11 03:36:09;;;;;;;;;;;16.00;99.90;;;;;;4592165;19;20039;-61
2023/08/11 03:37:41;;;;;;;5.00;4.50;;;15.70;99.90;;;;;;4592038;19;20222;-61
2023/08/11 03:39:12;;;;;;;4.30;3.85;;;15.50;99.90;;;;;;4592573;19;20011;-61
2023/08/11 03:40:44;;;;;;;4.75;4.20;;;15.40;99.90;;;;;;4593978;19;20022;-60
2023/08/11 03:42:15;;;;;;;5.13;4.35;;;15.30;99.90;;;;;;4592401;19;20017;-61
2023/08/11 03:43:47;;;;;;;5.65;5.05;;;15.30;99.90;;;;;;4593584;19;20078;-60
2023/08/11 03:45:21;;;;;;;4.60;3.95;;;15.20;99.90;;;;;;4593819;19;20040;-60
2023/08/11 03:46:52;;;;;;;5.90;5.30;;;15.20;99.90;;;;;;4593803;19;19998;-60
2023/08/11 03:48:25;;;;;;;6.88;5.53;;;15.20;99.90;;;;;;4593981;19;20457;-60
2023/08/11 03:49:57;;;;;;;7.15;5.78;;;15.20;99.90;;;;;;4593989;19;20484;-61
2023/08/11 03:51:29;;;;;;;5.72;5.13;;;15.20;99.90;;;;;;4593431;19;20010;-61
2023/08/11 03:53:01;;;;;;;6.18;5.28;;;15.20;99.90;;;;;;4593179;19;20020;-61
2023/08/11 03:54:33;;;;;;;6.32;5.45;;;15.20;99.90;;;;;;4594665;19;20021;-61
2023/08/11 03:56:07;;;;;;;5.97;5.38;;;15.20;99.90;;;;;;4593919;19;20023;-61
2023/08/11 03:57:38;;;;;;;11.38;8.52;;;15.20;99.90;;;;;;4594142;19;19998;-61
2023/08/11 03:59:11;;;;;;;13.50;9.38;;;15.40;99.90;;;;;;4593803;19;20010;-61
2023/08/11 04:00:43;;;;;;;13.95;8.77;;;15.90;99.90;;;;;;4593852;19;20014;-61
2023/08/11 04:02:16;;;;;;;10.38;7.38;;;16.50;99.90;;;;;;4592684;19;20014;-61
2023/08/11 04:03:48;;;;;;;9.50;7.25;;;16.90;99.90;;;;;;4592290;19;20007;-61
2023/08/11 04:05:19;;;;;;;7.43;6.05;;;17.20;99.90;;;;;;4592660;19;20011;-61
2023/08/11 04:06:52;;;;;;;7.55;5.40;;;17.50;99.90;;;;;;4593208;19;20017;-62
2023/08/11 04:08:25;;;;;;;5.72;5.03;;;17.70;99.90;;;;;;4593586;19;20048;-61
2023/08/11 04:09:58;;;;;;;5.82;4.72;;;17.90;99.90;;;;;;4592552;19;20077;-61
2023/08/11 04:11:32;;;;;;;6.85;4.90;;;18.00;99.90;;;;;;4593020;19;20007;-62
2023/08/11 04:13:04;;;;;;;5.82;4.13;;;18.20;99.90;;;;;;4592959;19;20018;-61
2023/08/11 04:14:37;;;;;;;;;;;18.20;99.90;;;;;;4594330;19;20021;-61
2023/08/11 04:16:09;;;;;;;6.63;4.82;;;18.40;99.90;;;;;;4593389;19;19915;-61
2023/08/11 04:17:41;;;;;;;5.90;4.75;;;18.50;99.90;;;;;;4592647;19;20018;-61
2023/08/11 04:19:12;;;;;;;5.88;4.43;;;18.50;99.90;;;;;;4593601;19;20013;-62
2023/08/11 04:20:44;;;;;;;5.20;4.50;;;18.60;99.90;;;;;;4593639;19;19998;-61
2023/08/11 04:22:16;;;;;;;5.30;4.00;;;18.70;99.90;;;;;;4591454;19;20414;-61
2023/08/11 04:23:48;;;;;;;5.20;4.40;;;18.70;99.90;;;;;;4590242;19;20014;-61
2023/08/11 04:25:19;;;;;;;6.30;5.10;;;18.70;99.90;;;;;;4590181;19;20018;-61
2023/08/11 04:26:51;;;;;;;5.93;5.32;;;18.70;99.90;;;;;;4590185;19;20041;-61
2023/08/11 04:28:23;;;;;;;6.65;5.50;;;18.80;99.90;;;;;;4590119;19;20028;-61
2023/08/11 04:29:54;;;;;;;6.60;4.75;;;18.80;99.90;;;;;;4590115;19;20129;-61
2023/08/11 04:31:26;;;;;;;8.15;5.07;;;18.90;99.90;;;;;;4590201;19;20021;-62
2023/08/11 04:32:59;;;;;;;6.35;4.93;;;19.00;99.90;;;;;;4589101;19;20014;-62
2023/08/11 04:34:33;;;;;;;14.73;5.30;;;19.10;99.90;;;;;;4590306;19;20329;-62
2023/08/11 04:36:05;;;;;;;11.82;4.57;;;19.20;99.90;;;;;;4590909;19;20014;-61
2023/08/11 04:37:37;;;;;;;7.03;4.57;;;19.20;99.90;;;;;;4591402;19;20040;-62
2023/08/11 04:39:08;;;;;;;6.03;4.65;;;19.30;99.90;;;;;;4592941;19;20007;-62
2023/08/11 04:40:40;;;;;;;7.57;5.03;;;19.30;99.90;;;;;;4591605;19;20374;-61
2023/08/11 04:42:12;;;;;;;6.70;4.47;;;19.50;99.90;;;;;;4591487;19;20082;-61
2023/08/11 04:43:44;;;;;;;7.18;5.28;;;19.60;99.90;;;;;;4592785;19;20011;-61
2023/08/11 04:45:15;;;;;;;16.58;14.82;;;19.70;99.90;;;;;;4592773;19;20038;-61
2023/08/11 04:46:47;;;;;;;21.67;15.07;;;18.00;99.90;;;;;;4592806;19;20017;-61
2023/08/11 04:48:18;;;;;;;14.52;11.07;;;16.70;99.90;;;;;;4592443;19;20066;-61
2023/08/11 04:49:50;;;;;;;7.40;6.45;;;16.00;99.90;;;;;;4592900;19;20002;-61
2023/08/11 04:51:21;;;;;;;8.73;7.85;;;15.80;99.90;;;;;;4590629;19;20339;-60
2023/08/11 04:52:53;;;;;;;9.90;8.90;;;15.70;99.90;;;;;;4591904;19;20011;-61
2023/08/11 04:54:25;;;;;;;8.35;7.38;;;15.50;99.90;;;;;;4592603;19;20011;-61
2023/08/11 04:55:56;;;;;;;8.57;7.55;;;15.50;99.90;;;;;;4591479;19;20479;-61
2023/08/11 04:57:28;;;;;;;10.07;8.35;;;15.50;99.90;;;;;;4592208;19;20010;-61
2023/08/11 04:59:00;;;;;;;8.90;7.80;;;15.50;99.90;;;;;;4592577;19;20482;-61
2023/08/11 05:00:33;;;;;;;9.38;7.82;;;15.40;99.90;;;;;;4592925;19;20010;-61
2023/08/11 05:02:06;;;;;;;10.75;8.88;;;15.40;99.90;;;;;;4591890;19;20014;-61
2023/08/11 05:03:38;;;;;;;9.50;8.50;;;15.40;99.90;;;;;;4592393;19;20349;-61
2023/08/11 05:05:10;;;;;;;10.10;8.10;;;15.40;99.90;;;;;;4592537;19;20002;-61
2023/08/11 05:06:42;;;;;;;10.85;9.30;;;15.40;99.90;;;;;;4592429;19;20321;-60
2023/08/11 05:08:15;;;;;;;11.30;8.65;;;15.40;99.90;;;;;;4592356;19;20015;-61
2023/08/11 05:09:46;;;;;;;10.73;8.68;;;15.40;99.90;;;;;;4592700;19;19999;-61
2023/08/11 05:11:18;;;;;;;12.80;9.88;;;15.50;99.90;;;;;;4592397;19;20010;-61
2023/08/11 05:12:51;;;;;;;12.90;9.45;;;15.50;99.90;;;;;;4591522;19;20010;-61
2023/08/11 05:14:23;;;;;;;11.13;9.15;;;15.50;99.90;;;;;;4592334;19;20013;-61
2023/08/11 05:15:55;;;;;;;12.07;9.82;;;15.50;99.90;;;;;;4592291;19;20007;-61
2023/08/11 05:17:27;;;;;;;13.85;10.65;;;15.50;99.90;;;;;;4592484;19;20002;-61
2023/08/11 05:18:58;;;;;;;12.88;10.20;;;15.60;99.90;;;;;;4592178;19;20006;-61
2023/08/11 05:20:30;;;;;;;13.55;10.60;;;15.60;99.90;;;;;;4591641;19;20019;-61
2023/08/11 05:22:02;;;;;;;11.82;9.90;;;15.60;99.90;;;;;;4590840;19;20038;-61
2023/08/11 05:23:34;;;;;;;12.05;10.25;;;15.60;99.90;;;;;;4590191;19;20017;-61
2023/08/11 05:25:06;;;;;;;11.13;8.75;;;15.60;99.90;;;;;;4587530;19;20019;-61
2023/08/11 05:26:38;;;;;;;11.05;9.07;;;15.60;99.90;;;;;;4588138;19;20010;-61
2023/08/11 05:28:09;;;;;;;12.10;9.75;;;15.60;99.90;;;;;;4589907;19;20078;-61
2023/08/11 05:29:45;;;;;;;12.38;10.57;;;15.60;99.90;;;;;;4589315;19;20026;-61
2023/08/11 05:31:17;;;;;;;13.50;10.55;;;15.70;99.90;;;;;;4590395;19;20014;-61
2023/08/11 05:32:48;;;;;;;12.35;10.30;;;15.70;99.90;;;;;;4590964;19;20041;-61
2023/08/11 05:34:20;;;;;;;13.13;10.13;;;15.70;99.90;;;;;;4592062;19;20070;-61
2023/08/11 05:35:52;;;;;;;12.68;9.98;;;15.70;99.90;;;;;;4592000;19;20039;-61
2023/08/11 05:37:24;;;;;;;13.32;11.27;;;15.70;99.90;;;;;;4591830;19;20026;-61
2023/08/11 05:38:56;;;;;;;12.77;11.02;;;15.70;99.90;;;;;;4591232;19;20025;-61
2023/08/11 05:40:29;;;;;;;;;;;15.80;99.90;;;;;;4592637;19;20519;-61
2023/08/11 05:42:01;;;;;;;15.05;11.35;;;15.80;99.90;;;;;;4589092;19;19915;-62
2023/08/11 05:43:32;;;;;;;13.68;10.13;;;15.80;99.90;;;;;;4590982;19;20011;-61
2023/08/11 05:45:04;;;;;;;13.85;10.65;;;15.80;99.90;;;;;;4591159;19;20318;-62
2023/08/11 05:46:36;;;;;;;12.60;10.98;;;15.80;99.90;;;;;;4591655;19;20007;-61
2023/08/11 05:48:09;;;;;;;11.63;10.38;;;15.90;99.90;;;;;;4591517;19;20343;-61
2023/08/11 05:49:41;;;;;;;12.95;11.50;;;15.90;99.90;;;;;;4590031;19;20319;-61
2023/08/11 05:51:12;;;;;;;12.10;10.85;;;15.90;99.90;;;;;;4590551;19;20027;-61
2023/08/11 05:52:44;;;;;;;14.10;11.18;;;15.90;99.90;;;;;;4590819;19;20006;-61
2023/08/11 05:54:16;;;;;;;11.90;10.73;;;15.90;99.90;;;;;;4591145;19;20014;-61
2023/08/11 05:55:48;;;;;;;13.57;11.25;;;16.00;99.90;;;;;;4591138;19;20038;-61
2023/08/11 05:57:19;;;;;;;11.52;10.32;;;16.00;99.90;;;;;;4591157;19;20021;-61
2023/08/11 05:58:51;;;;;;;12.35;11.05;;;16.00;99.90;;;;;;4591202;19;20082;-61
2023/08/11 06:00:23;;;;;;;13.02;11.70;;;16.00;99.90;;;;;;4591552;19;20299;-61
2023/08/11 06:01:54;;;;;;;13.07;11.65;;;16.00;99.90;;;;;;4590667;19;20019;-61
2023/08/11 06:03:30;;;;;;;12.52;11.07;;;16.00;99.90;;;;;;4595496;19;20007;-61
2023/08/11 06:05:01;;;;;;;12.65;11.30;;;16.10;99.90;;;;;;4596126;19;20006;-62
2023/08/11 06:06:33;;;;;;;12.63;11.35;;;16.10;99.90;;;;;;4595787;19;20078;-61
2023/08/11 06:08:05;;;;;;;12.32;11.02;;;16.10;99.90;;;;;;4595771;19;20338;-61
2023/08/11 06:09:38;;;;;;;13.18;11.00;;;16.10;99.90;;;;;;4595815;19;20005;-61
2023/08/11 06:11:10;;;;;;;12.27;10.70;;;16.10;99.90;;;;;;4595755;19;20378;-61
2023/08/11 06:12:41;;;;;;;11.70;10.38;;;16.20;99.90;;;;;;4595061;19;20006;-61
2023/08/11 06:14:13;;;;;;;11.85;10.65;;;16.20;99.90;;;;;;4595968;19;20014;-61
2023/08/11 06:15:44;;;;;;;11.95;10.70;;;16.20;99.90;;;;;;4595659;19;20017;-61
2023/08/11 06:17:16;;;;;;;;;;;16.20;99.90;;;;;;4596353;19;20011;-61
2023/08/11 06:18:47;;;;;;;12.40;10.80;;;16.20;99.90;;;;;;4595420;19;19918;-61
2023/08/11 06:20:19;;;;;;;12.07;10.77;;;16.20;99.90;;;;;;4596014;19;20007;-61
2023/08/11 06:21:51;;;;;;;13.65;11.90;;;16.30;99.90;;;;;;4594896;19;20410;-61
2023/08/11 06:23:22;;;;;;;14.75;11.35;;;16.30;99.90;;;;;;4595846;19;20006;-61
2023/08/11 06:24:55;;;;;;;14.40;10.73;;;16.30;99.90;;;;;;4595451;19;20082;-61
2023/08/11 06:26:27;;;;;;;11.15;9.65;;;16.40;99.90;;;;;;4595738;19;19998;-61
2023/08/11 06:27:58;;;;;;;11.05;9.13;;;16.40;99.90;;;;;;4595368;19;20010;-61
2023/08/11 06:29:30;;;;;;;12.07;9.57;;;16.40;99.90;;;;;;4595302;19;20022;-62
2023/08/11 06:31:02;;;;;;;10.27;9.07;;;16.50;99.90;;;;;;4595397;19;20007;-61
2023/08/11 06:32:33;;;;;;;10.05;9.05;;;16.50;99.90;;;;;;4594782;19;20021;-62
2023/08/11 06:34:05;;;;;;;9.73;8.02;;;16.50;99.90;;;;;;4595248;19;20100;-61
2023/08/11 06:35:38;;;;;;;11.27;9.45;;;16.60;99.90;;;;;;4595253;19;20014;-62
2023/08/11 06:37:09;;;;;;;9.48;8.05;;;16.60;99.90;;;;;;4595172;19;20017;-61
2023/08/11 06:38:42;;;;;;;10.95;7.75;;;16.60;99.90;;;;;;4595019;19;20024;-61
2023/08/11 06:40:14;;;;;;;9.30;8.13;;;16.50;99.90;;;;;;4594987;19;20091;-61
2023/08/11 06:41:45;;;;;;;;;;;16.60;99.90;;;;;;4593740;19;20011;-62
2023/08/11 06:43:17;;;;;;;10.83;7.73;;;16.60;99.90;;;;;;4594581;19;20290;-61
2023/08/11 06:44:49;;;;;;;11.60;9.60;;;16.70;99.90;;;;;;4594827;19;20011;-61
2023/08/11 06:46:20;;;;;;;9.52;7.45;;;16.70;99.90;;;;;;4593419;19;20010;-61
2023/08/11 06:47:52;;;;;;;13.52;9.18;;;16.70;99.90;;;;;;4594667;19;20076;-62
2023/08/11 06:49:23;;;;;;;7.93;7.05;;;16.70;99.90;;;;;;4594813;19;20017;-61
2023/08/11 06:50:58;;;;;;;;;;;16.70;99.90;;;;;;4594882;19;20074;-61
2023/08/11 06:52:29;;;;;;;9.55;6.40;;;16.80;99.90;;;;;;4590251;19;20223;-61
2023/08/11 06:54:01;;;;;;;8.30;7.13;;;16.80;99.90;;;;;;4591933;19;20021;-61
2023/08/11 06:55:32;;;;;;;8.60;7.32;;;16.80;99.90;;;;;;4591958;19;20072;-61
2023/08/11 06:57:04;;;;;;;8.43;6.18;;;16.90;99.90;;;;;;4591967;19;20036;-61
2023/08/11 06:58:36;;;;;;;8.75;6.32;;;17.00;99.90;;;;;;4591613;19;20102;-61
2023/08/11 07:00:08;;;;;;;8.35;6.93;;;17.00;99.90;;;;;;4591879;19;20551;-61
2023/08/11 07:01:40;;;;;;;7.75;6.07;;;17.00;99.90;;;;;;4590578;19;20039;-61
2023/08/11 07:03:12;;;;;;;8.00;6.28;;;17.00;99.90;;;;;;4591574;19;20010;-61
2023/08/11 07:04:44;;;;;;;7.75;5.43;;;17.00;99.90;;;;;;4592682;19;20011;-62
2023/08/11 07:06:15;;;;;;;;;;;17.10;99.90;;;;;;4594121;19;20469;-62
2023/08/11 07:07:48;;;;;;;;;;;17.10;99.90;;;;;;4595282;19;20299;-61
2023/08/11 07:09:19;;;;;;;;;;;17.10;99.90;;;;;;4595245;19;19917;-61
2023/08/11 07:10:51;;;;;;;7.47;4.95;;;17.10;99.90;;;;;;4594500;19;19921;-61
2023/08/11 07:12:23;;;;;;;7.60;5.28;;;17.10;99.90;;;;;;4593174;19;20015;-61
2023/08/11 07:13:55;;;;;;;6.10;4.50;;;17.10;99.90;;;;;;4593446;19;20078;-61
2023/08/11 07:15:27;;;;;;;5.32;3.95;;;17.10;99.90;;;;;;4591737;19;20010;-61
2023/08/11 07:16:59;;;;;;;5.40;2.85;;;17.10;99.90;;;;;;4592029;19;20048;-61
2023/08/11 07:18:30;;;;;;;5.25;3.45;;;17.20;99.90;;;;;;4592084;19;20303;-61
2023/08/11 07:20:02;;;;;;;5.68;3.40;;;17.20;99.90;;;;;;4591971;19;20033;-61
2023/08/11 07:21:33;;;;;;;5.63;3.17;;;17.20;99.90;;;;;;4591654;19;20010;-61
2023/08/11 07:23:05;;;;;;;4.57;3.08;;;17.20;99.90;;;;;;4592125;19;20314;-61
2023/08/11 07:24:36;;;;;;;;;;;17.20;99.90;;;;;;4591638;19;20437;-61
2023/08/11 07:26:08;;;;;;;4.70;3.45;;;17.30;99.90;;;;;;4591445;19;20237;-61
2023/08/11 07:27:40;;;;;;;4.95;3.35;;;17.20;99.90;;;;;;4592015;19;20017;-62
2023/08/11 07:29:11;;;;;;;5.68;3.60;;;17.20;99.90;;;;;;4591725;19;20002;-61
2023/08/11 07:30:43;;;;;;;6.60;4.10;;;17.20;99.90;;;;;;4593616;19;20098;-61
2023/08/11 07:32:15;;;;;;;5.47;3.40;;;17.30;99.90;;;;;;4592700;19;20006;-61
2023/08/11 07:33:46;;;;;;;5.97;3.78;;;17.30;99.90;;;;;;4594257;19;20006;-61
2023/08/11 07:35:18;;;;;;;5.43;4.15;;;17.30;99.90;;;;;;4593779;19;20030;-62
2023/08/11 07:36:50;;;;;;;4.75;3.00;;;17.40;99.90;;;;;;4593939;19;20028;-62
2023/08/11 07:38:21;;;;;;;6.43;3.58;;;17.40;99.90;;;;;;4593724;19;20003;-61
2023/08/11 07:39:54;;;;;;;;;;;17.50;99.90;;;;;;4594534;19;20014;-61
2023/08/11 07:41:26;;;;;;;5.97;4.05;;;17.50;99.90;;;;;;4593371;19;19919;-61
2023/08/11 07:42:58;;;;;;;5.65;3.72;;;17.50;99.90;;;;;;4593588;19;20025;-61
2023/08/11 07:44:30;;;;;;;4.97;3.15;;;17.50;99.90;;;;;;4593768;19;20114;-62
2023/08/11 07:46:01;;;;;;;;;;;17.50;99.90;;;;;;4594703;19;20011;-62
2023/08/11 07:47:34;;;;;;;4.95;2.85;;;17.60;99.90;;;;;;4593542;19;19918;-62
2023/08/11 07:49:06;;;;;;;5.10;3.15;;;17.60;99.90;;;;;;4593354;19;20422;-61
2023/08/11 07:50:39;;;;;;;5.30;3.45;;;17.70;99.90;;;;;;4593571;19;20006;-61
2023/08/11 07:52:11;;;;;;;6.65;3.42;;;17.70;99.90;;;;;;4592340;19;20095;-61
2023/08/11 07:53:44;;;;;;;4.28;2.50;;;17.80;99.90;;;;;;4592184;19;20010;-61
2023/08/11 07:55:17;;;;;;;4.60;2.28;;;17.80;99.90;;;;;;4592138;19;19999;-61
2023/08/11 07:56:50;;;;;;;3.45;2.35;;;17.90;99.90;;;;;;4592695;19;20033;-61
2023/08/11 07:58:22;;;;;;;3.63;2.08;;;17.90;99.90;;;;;;4593332;19;20003;-61
2023/08/11 07:59:53;;;;;;;4.30;2.35;;;18.00;99.90;;;;;;4593244;19;20033;-61
2023/08/11 08:01:26;;;;;;;2.90;1.67;;;18.00;99.90;;;;;;4592475;19;20081;-61